Time;durP1;ratioP1;P1;durP2;ratioP2;P2;SDS_P1;SDS_P2;PMS_P1;PMS_P2;Temp;Humidity;BMP_temperature;BMP_pressure;BME280_temperature;BME280_humidity;BME280_pressure;Samples;Min_cycle;Max_cycle;Signal;HPM_P1;HPM_P2
2021/08/03 00:00:26;;;;;;;3.33;2.00;;;;;;;16.22;59.96;100899.81;685809;28;61796;-62
2021/08/03 00:00:51;;;;;;;2.80;2.28;;;;;;;16.21;60.10;100901.72;686836;28;18516;-62
2021/08/03 00:01:14;;;;;;;2.50;2.10;;;;;;;16.22;60.13;100902.56;683519;28;102800;-63
2021/08/03 00:01:46;;;;;;;3.00;1.95;;;;;;;16.21;60.35;100906.34;684353;28;98574;-63
2021/08/03 00:02:08;;;;;;;2.47;2.10;;;;;;;16.20;60.36;100900.03;686188;28;41933;-62
2021/08/03 00:02:30;;;;;;;2.78;2.13;;;;;;;16.22;60.27;100899.81;686097;28;46347;-63
2021/08/03 00:02:53;;;;;;;2.20;2.05;;;;;;;16.21;60.31;100898.19;686283;28;46324;-63
2021/08/03 00:03:14;;;;;;;2.03;1.83;;;;;;;16.24;60.31;100900.47;685366;28;70335;-62
2021/08/03 00:03:37;;;;;;;2.28;2.17;;;;;;;16.24;60.14;100899.63;686741;28;23461;-63
2021/08/03 00:04:05;;;;;;;2.10;2.00;;;;;;;16.23;60.08;100898.78;685555;28;67513;-62
2021/08/03 00:04:34;;;;;;;2.00;1.90;;;;;;;16.20;59.96;100897.31;682616;28;138086;-62
2021/08/03 00:04:57;;;;;;;2.22;2.03;;;;;;;16.22;60.15;100899.81;686156;28;136260;-62
2021/08/03 00:05:20;;;;;;;2.20;2.00;;;;;;;16.21;59.82;100903.63;687953;28;69485;-63
2021/08/03 00:05:45;;;;;;;3.42;1.98;;;;;;;16.20;60.10;100899.22;687766;28;61734;-61
2021/08/03 00:06:12;;;;;;;2.22;2.00;;;;;;;16.18;60.32;100898.59;686947;28;96583;-63
2021/08/03 00:06:35;;;;;;;2.30;1.90;;;;;;;16.17;60.15;100897.72;684876;28;138170;-63
2021/08/03 00:06:58;;;;;;;2.38;1.85;;;;;;;16.16;60.16;100903.38;685586;28;62800;-63
2021/08/03 00:07:19;;;;;;;2.72;2.00;;;;;;;16.14;60.27;100900.03;686224;28;41572;-62
2021/08/03 00:07:40;;;;;;;3.95;2.40;;;;;;;16.11;60.20;100895.00;686436;28;44189;-62
2021/08/03 00:08:04;;;;;;;3.20;2.05;;;;;;;16.10;60.34;100898.81;687385;28;23503;-63
2021/08/03 00:08:27;;;;;;;2.63;2.00;;;;;;;16.07;60.42;100896.50;684805;28;92130;-62
2021/08/03 00:08:52;;;;;;;3.28;1.98;;;;;;;16.05;60.41;100899.44;685412;28;69445;-63
2021/08/03 00:09:13;;;;;;;2.63;1.90;;;;;;;16.03;60.50;100896.06;684085;28;108364;-62
2021/08/03 00:09:35;;;;;;;3.50;2.20;;;;;;;16.00;60.51;100896.47;686271;28;44398;-62
2021/08/03 00:09:57;;;;;;;2.20;2.10;;;;;;;15.98;60.60;100904.03;687410;28;20080;-63
2021/08/03 00:10:18;;;;;;;2.22;2.00;;;;;;;15.97;60.61;100895.03;687407;28;23266;-62
2021/08/03 00:10:39;;;;;;;3.13;2.10;;;;;;;15.96;60.48;100903.41;686868;28;23621;-61
2021/08/03 00:11:03;;;;;;;4.80;2.28;;;;;;;15.95;60.79;100897.09;687618;28;13872;-62
2021/08/03 00:11:25;;;;;;;4.68;2.15;;;;;;;15.95;60.80;100899.00;683834;28;116108;-63
2021/08/03 00:11:47;;;;;;;3.45;2.00;;;;;;;15.94;60.89;100895.44;687700;28;9566;-63
2021/08/03 00:12:11;;;;;;;2.72;2.00;;;;;;;15.94;60.70;100895.44;686685;28;42606;-61
2021/08/03 00:12:34;;;;;;;3.13;1.80;;;;;;;15.94;60.84;100895.44;685588;28;61701;-61
2021/08/03 00:13:01;;;;;;;3.47;2.10;;;;;;;15.95;60.85;100904.44;685971;28;61890;-63
2021/08/03 00:13:25;;;;;;;2.30;2.03;;;;;;;15.95;61.05;100893.56;686686;28;35916;-62
2021/08/03 00:13:47;;;;;;;2.55;2.05;;;;;;;15.95;60.85;100893.56;684943;28;87291;-62
2021/08/03 00:14:09;;;;;;;3.40;1.90;;;;;;;15.94;61.05;100894.59;687873;28;1806;-62
2021/08/03 00:14:31;;;;;;;2.15;1.92;;;;;;;15.94;60.89;100894.59;684087;28;69515;-62
2021/08/03 00:14:54;;;;;;;4.43;2.10;;;;;;;15.96;60.77;100897.97;683936;28;46417;-60
2021/08/03 00:15:19;;;;;;;2.65;2.35;;;;;;;15.95;60.99;100890.84;681637;28;46480;-62
2021/08/03 00:15:41;;;;;;;2.33;2.13;;;;;;;15.94;60.78;100891.88;676704;29;113593;-62
2021/08/03 00:16:06;;;;;;;1.98;1.88;;;;;;;15.96;60.75;100892.53;679521;29;45218;-63
2021/08/03 00:16:27;;;;;;;2.28;2.08;;;;;;;15.96;60.80;100889.78;674146;29;115396;-62
2021/08/03 00:16:48;;;;;;;2.70;2.10;;;;;;;15.95;60.88;100894.38;677013;29;46361;-62
2021/08/03 00:17:11;;;;;;;2.20;2.00;;;;;;;15.96;60.66;100892.53;679188;29;45263;-62
2021/08/03 00:17:32;;;;;;;2.25;2.03;;;;;;;15.96;60.85;100893.34;681623;28;47203;-62
2021/08/03 00:17:56;;;;;;;2.22;2.00;;;;;;;15.98;60.88;100890.41;683917;28;21541;-62
2021/08/03 00:18:17;;;;;;;2.22;2.10;;;;;;;15.97;60.52;100894.19;681886;28;92324;-62
2021/08/03 00:18:39;;;;;;;2.95;2.20;;;;;;;15.97;60.61;100888.72;684348;28;22462;-62
2021/08/03 00:19:00;;;;;;;2.08;1.98;;;;;;;15.97;60.64;100888.72;683470;28;46286;-62
2021/08/03 00:19:24;;;;;;;2.05;1.95;;;;;;;15.97;60.42;100889.59;684673;28;20003;-62
2021/08/03 00:19:45;;;;;;;2.60;1.98;;;;;;;15.97;60.42;100886.88;682729;28;74361;-63
2021/08/03 00:20:09;;;;;;;3.72;1.95;;;;;;;15.97;60.76;100889.59;685108;28;991;-62
2021/08/03 00:20:31;;;;;;;1.90;1.80;;;;;;;15.97;60.73;100894.19;685458;28;1289;-62
2021/08/03 00:20:52;;;;;;;3.72;2.42;;;;;;;15.97;60.58;100889.59;684427;28;20854;-62
2021/08/03 00:21:25;;;;;;;3.30;2.10;;;;;;;15.97;60.67;100891.44;682829;28;61261;-63
2021/08/03 00:21:46;;;;;;;2.10;1.98;;;;;;;15.97;60.42;100892.31;683079;28;69517;-62
2021/08/03 00:22:08;;;;;;;2.50;2.10;;;;;;;15.98;60.72;100895.88;684505;28;20839;-62
2021/08/03 00:22:29;;;;;;;3.10;2.10;;;;;;;15.98;60.46;100898.59;683795;28;38094;-62
2021/08/03 00:22:54;;;;;;;2.45;2.05;;;;;;;15.97;60.63;100896.91;684213;28;23444;-63
2021/08/03 00:23:15;;;;;;;2.03;1.92;;;;;;;15.96;60.88;100892.53;681271;28;115152;-62
2021/08/03 00:23:39;;;;;;;2.45;1.92;;;;;;;15.94;60.75;100894.59;683805;28;1008;-62
2021/08/03 00:24:00;;;;;;;2.60;2.10;;;;;;;15.94;60.55;100894.59;681280;28;70322;-62
2021/08/03 00:24:23;;;;;;;2.28;2.08;;;;;;;15.93;60.68;100893.75;683442;28;12383;-63
2021/08/03 00:24:45;;;;;;;2.40;2.15;;;;;;;15.93;60.78;100896.50;683452;28;88098;-63
2021/08/03 00:25:06;;;;;;;2.63;2.20;;;;;;;15.92;60.76;100894.81;684895;28;45991;-62
2021/08/03 00:25:28;;;;;;;2.47;2.00;;;;;;;15.93;60.60;100903.84;685257;28;46316;-62
2021/08/03 00:25:52;;;;;;;2.50;2.10;;;;;;;15.91;60.79;100900.47;687550;28;1539;-63
2021/08/03 00:26:15;;;;;;;2.40;2.13;;;;;;;15.91;60.70;100906.75;685448;28;66144;-62
2021/08/03 00:26:37;;;;;;;2.30;2.10;;;;;;;15.91;60.56;100903.19;685178;28;70327;-63
2021/08/03 00:26:58;;;;;;;2.00;1.88;;;;;;;15.89;60.59;100900.66;686947;28;26062;-62
2021/08/03 00:27:21;;;;;;;4.25;2.05;;;;;;;15.88;60.61;100900.88;687065;28;9223;-62
2021/08/03 00:27:42;;;;;;;3.25;2.20;;;;;;;15.87;60.60;100893.75;686902;28;24805;-63
2021/08/03 00:28:03;;;;;;;2.40;2.20;;;;;;;15.84;60.79;100904.00;686507;28;45493;-62
2021/08/03 00:28:24;;;;;;;2.50;2.10;;;;;;;15.83;60.85;100894.19;686896;28;20153;-63
2021/08/03 00:28:49;;;;;;;2.67;2.03;;;;;;;15.79;60.91;100898.34;687662;28;12038;-63
2021/08/03 00:29:15;;;;;;;2.35;2.15;;;;;;;15.77;60.90;100892.28;684523;28;93067;-62
2021/08/03 00:29:37;;;;;;;2.58;1.90;;;;;;;15.75;61.24;100897.09;684613;28;158085;-63
2021/08/03 00:29:58;;;;;;;1.98;1.80;;;;;;;15.74;61.26;100894.56;689169;28;37957;-62
2021/08/03 00:30:19;;;;;;;2.42;2.00;;;;;;;15.72;61.46;100900.22;689342;28;27063;-62
2021/08/03 00:30:42;;;;;;;2.45;2.20;;;;;;;15.70;61.21;100899.56;689584;28;23415;-62
2021/08/03 00:31:04;;;;;;;3.00;2.20;;;;;;;15.64;61.27;100895.81;689104;28;27805;-62
2021/08/03 00:31:26;;;;;;;2.42;2.05;;;;;;;15.65;61.54;100897.47;687136;28;44384;-62
2021/08/03 00:31:49;;;;;;;4.03;1.90;;;;;;;15.65;61.38;100900.19;685561;28;69466;-62
2021/08/03 00:32:11;;;;;;;2.50;2.00;;;;;;;15.63;61.38;100896.00;687151;28;88058;-62
2021/08/03 00:32:33;;;;;;;2.33;2.00;;;;;;;15.61;61.58;100893.50;689221;28;22009;-62
2021/08/03 00:32:54;;;;;;;4.63;1.92;;;;;;;15.60;61.83;100899.16;688317;28;44838;-63
2021/08/03 00:33:16;;;;;;;6.00;2.30;;;;;;;15.59;61.67;100892.00;688671;28;46288;-62
2021/08/03 00:33:38;;;;;;;4.95;2.40;;;;;;;15.58;61.82;100896.63;687437;28;1415;-62
2021/08/03 00:34:05;;;;;;;2.20;2.00;;;;;;;15.57;61.69;100896.84;682881;28;61243;-62
2021/08/03 00:34:27;;;;;;;2.20;2.00;;;;;;;15.55;62.05;100896.19;682682;28;46357;-62
2021/08/03 00:34:48;;;;;;;2.35;2.13;;;;;;;15.54;61.97;100899.97;684351;28;22471;-62
2021/08/03 00:35:09;;;;;;;2.83;2.40;;;;;;;15.54;62.01;100897.25;684296;28;23562;-62
2021/08/03 00:35:34;;;;;;;2.70;2.10;;;;;;;15.52;62.00;100897.44;685336;28;38089;-63
2021/08/03 00:35:56;;;;;;;2.17;1.90;;;;;;;15.50;62.23;100896.81;683464;28;46358;-63
2021/08/03 00:36:20;;;;;;;2.50;2.20;;;;;;;15.48;62.13;100896.19;687416;28;1198;-60
2021/08/03 00:36:43;;;;;;;2.90;2.00;;;;;;;15.47;62.21;100895.34;682230;28;69323;-63
2021/08/03 00:37:10;;;;;;;1.92;1.83;;;;;;;15.47;62.26;100899.97;677780;29;115340;-62
2021/08/03 00:37:32;;;;;;;2.30;2.00;;;;;;;15.44;62.35;100893.03;678213;28;115936;-62
2021/08/03 00:37:53;;;;;;;2.20;2.10;;;;;;;15.43;62.63;100902.22;681053;29;19705;-62
2021/08/03 00:38:16;;;;;;;2.00;1.90;;;;;;;15.42;62.55;100891.56;679328;29;24250;-63
2021/08/03 00:38:38;;;;;;;2.15;2.05;;;;;;;15.42;62.68;100894.28;680119;28;45254;-62
2021/08/03 00:39:00;;;;;;;2.70;1.90;;;;;;;15.40;62.73;100894.47;681444;28;21535;-62
2021/08/03 00:39:25;;;;;;;2.60;2.13;;;;;;;15.39;62.78;100895.53;680370;28;61745;-63
2021/08/03 00:39:47;;;;;;;2.58;2.03;;;;;;;15.37;62.79;100894.06;683448;28;1016;-62
2021/08/03 00:40:13;;;;;;;2.30;2.10;;;;;;;15.37;62.72;100899.50;683503;28;93146;-62
2021/08/03 00:40:37;;;;;;;2.35;2.10;;;;;;;15.35;62.77;100896.97;685019;28;69519;-63
2021/08/03 00:41:02;;;;;;;3.90;2.20;;;;;;;15.36;63.06;100895.94;685471;28;113591;-61
2021/08/03 00:41:26;;;;;;;5.70;3.58;;;;;;;15.36;62.83;100886.94;683718;28;116342;-61
2021/08/03 00:41:51;;;;;;;3.80;3.28;;;;;;;15.36;62.88;100895.09;685639;28;116096;-62
2021/08/03 00:42:13;;;;;;;3.40;2.95;;;;;;;15.35;62.75;100891.53;687061;28;92325;-63
2021/08/03 00:42:36;;;;;;;3.40;3.10;;;;;;;15.34;63.14;100899.91;685841;28;56277;-62
2021/08/03 00:42:57;;;;;;;4.18;2.95;;;;;;;15.33;63.13;100890.91;686243;28;22500;-61
2021/08/03 00:43:19;;;;;;;9.93;6.65;;;;;;;15.32;63.33;100898.22;683603;28;46435;-59
2021/08/03 00:43:40;;;;;;;11.15;8.43;;;;;;;15.33;63.19;100893.63;684691;28;11100;-61
2021/08/03 00:44:02;;;;;;;7.88;6.75;;;;;;;15.33;62.96;100896.34;681630;28;23558;-62
2021/08/03 00:44:37;;;;;;;4.88;4.30;;;;;;;15.32;63.06;100886.50;678189;29;69544;-63
2021/08/03 00:44:58;;;;;;;2.15;2.05;;;;;;;15.32;62.84;100897.38;672690;29;157416;-61
2021/08/03 00:45:26;;;;;;;8.48;5.80;;;;;;;15.33;63.24;100890.91;674944;29;137920;-63
2021/08/03 00:45:47;;;;;;;8.45;4.65;;;;;;;15.33;62.92;100896.34;679020;29;22386;-60
2021/08/03 00:46:09;;;;;;;3.22;2.92;;;;;;;15.33;63.25;100890.91;678851;29;20851;-63
2021/08/03 00:46:38;;;;;;;7.43;5.10;;;;;;;15.32;63.09;100900.13;680209;29;61602;-61
2021/08/03 00:46:59;;;;;;;12.75;9.25;;;;;;;15.31;63.24;100895.69;680687;29;46418;-61
2021/08/03 00:47:21;;;;;;;9.15;7.35;;;;;;;15.33;63.34;100899.09;679450;29;44444;-61
2021/08/03 00:47:47;;;;;;;5.97;4.85;;;;;;;15.34;62.99;100899.91;678918;28;103801;-63
2021/08/03 00:48:09;;;;;;;23.52;14.40;;;;;;;15.32;63.23;100895.50;680338;29;44708;-61
2021/08/03 00:48:31;;;;;;;22.70;13.35;;;;;;;15.32;63.18;100897.38;680709;28;44558;-62
2021/08/03 00:48:52;;;;;;;11.88;7.93;;;;;;;15.33;63.23;100896.34;681377;28;23107;-63
2021/08/03 00:49:14;;;;;;;20.77;13.15;;;;;;;15.34;63.18;100902.63;682056;28;22502;-62
2021/08/03 00:49:37;;;;;;;14.27;10.32;;;;;;;15.34;62.99;100902.63;683196;28;909;-62
2021/08/03 00:49:59;;;;;;;16.30;10.55;;;;;;;15.34;63.07;100903.47;684761;28;1004;-62
2021/08/03 00:50:21;;;;;;;12.63;7.82;;;;;;;15.35;63.11;100904.31;686285;28;1217;-63
2021/08/03 00:50:44;;;;;;;6.10;5.07;;;;;;;15.34;63.15;100900.75;684134;28;13687;-62
2021/08/03 00:51:08;;;;;;;4.28;3.13;;;;;;;15.33;63.28;100904.53;682616;28;61870;-62
2021/08/03 00:51:30;;;;;;;3.40;2.05;;;;;;;15.31;63.13;100903.88;680741;28;46428;-63
2021/08/03 00:51:57;;;;;;;2.70;2.10;;;;;;;15.30;63.24;100905.75;681438;28;35623;-61
2021/08/03 00:52:22;;;;;;;2.50;2.30;;;;;;;15.29;63.01;100904.06;675221;29;115244;-63
2021/08/03 00:52:49;;;;;;;3.67;2.70;;;;;;;15.28;63.21;100902.41;675466;28;137873;-63
2021/08/03 00:53:10;;;;;;;4.85;2.47;;;;;;;15.27;63.11;100900.72;677366;29;65964;-61
2021/08/03 00:53:32;;;;;;;2.35;2.10;;;;;;;15.26;63.26;100898.22;678039;29;42382;-62
2021/08/03 00:53:54;;;;;;;3.20;2.08;;;;;;;15.25;63.23;100896.53;679106;29;21300;-61
2021/08/03 00:54:16;;;;;;;2.42;2.10;;;;;;;15.23;63.26;100894.00;676160;29;69481;-62
2021/08/03 00:54:38;;;;;;;2.00;1.90;;;;;;;15.23;63.21;100893.19;680206;29;22503;-61
2021/08/03 00:54:59;;;;;;;2.72;1.80;;;;;;;15.22;63.50;100892.34;680756;28;46366;-60
2021/08/03 00:55:22;;;;;;;2.38;1.92;;;;;;;15.21;63.49;100895.28;680691;29;46340;-63
2021/08/03 00:55:48;;;;;;;3.38;2.10;;;;;;;15.19;63.25;100897.34;677506;28;137912;-60
2021/08/03 00:56:10;;;;;;;2.58;2.10;;;;;;;15.18;63.63;100895.69;681548;28;69451;-61
2021/08/03 00:56:31;;;;;;;2.67;2.10;;;;;;;15.17;63.66;100896.72;683969;28;29356;-61
2021/08/03 00:56:53;;;;;;;2.80;2.03;;;;;;;15.18;63.51;100890.22;682136;29;1235;-61
2021/08/03 00:57:15;;;;;;;2.67;2.40;;;;;;;15.16;63.46;100893.16;682446;28;44191;-63
2021/08/03 00:57:40;;;;;;;2.45;2.05;;;;;;;15.13;63.47;100888.94;681322;29;14142;-61
2021/08/03 00:58:03;;;;;;;2.90;2.03;;;;;;;15.13;63.41;100888.13;680249;29;59076;-61
2021/08/03 00:58:25;;;;;;;1.98;1.88;;;;;;;15.13;63.72;100886.22;679988;29;69756;-61
2021/08/03 00:58:46;;;;;;;2.40;2.10;;;;;;;15.12;63.59;100892.72;681827;29;16514;-61
2021/08/03 00:59:08;;;;;;;2.17;1.97;;;;;;;15.13;63.79;100896.28;680262;28;45030;-61
2021/08/03 00:59:30;;;;;;;2.45;2.03;;;;;;;15.13;63.78;100896.28;681913;28;70387;-63
2021/08/03 00:59:51;;;;;;;2.45;1.98;;;;;;;15.12;63.77;100895.47;682384;28;45087;-63
2021/08/03 01:00:15;;;;;;;4.00;2.10;;;;;;;15.12;63.97;100890.00;682212;28;59155;-62
2021/08/03 01:00:37;;;;;;;4.05;2.20;;;;;;;15.11;63.70;100891.03;683295;28;13026;-61
2021/08/03 01:01:01;;;;;;;2.47;2.22;;;;;;;15.11;63.66;100893.75;682831;28;64672;-60
2021/08/03 01:01:23;;;;;;;2.60;2.40;;;;;;;15.11;64.04;100887.50;687474;28;1006;-62
2021/08/03 01:01:45;;;;;;;2.30;2.10;;;;;;;15.11;63.93;100890.22;686261;28;27344;-62
2021/08/03 01:02:07;;;;;;;2.13;2.00;;;;;;;15.10;63.72;100886.63;686784;28;18686;-62
2021/08/03 01:02:30;;;;;;;2.20;2.00;;;;;;;15.11;64.12;100887.50;684702;28;69461;-63
2021/08/03 01:02:54;;;;;;;2.58;1.90;;;;;;;15.12;64.02;100886.44;684700;28;77767;-61
2021/08/03 01:03:15;;;;;;;2.63;1.88;;;;;;;15.12;63.97;100889.16;687123;28;18423;-63
2021/08/03 01:03:36;;;;;;;4.20;2.10;;;;;;;15.13;63.89;100890.84;686541;28;11688;-61
2021/08/03 01:03:58;;;;;;;2.53;2.10;;;;;;;15.12;63.70;100890.00;683144;28;42721;-60
2021/08/03 01:04:21;;;;;;;2.30;2.03;;;;;;;15.11;64.10;100891.03;683606;28;43596;-60
2021/08/03 01:04:42;;;;;;;2.17;2.00;;;;;;;15.11;64.04;100888.31;681309;28;33290;-61
2021/08/03 01:05:05;;;;;;;2.08;1.98;;;;;;;15.13;63.91;100888.94;681441;28;69936;-61
2021/08/03 01:05:32;;;;;;;2.40;2.05;;;;;;;15.08;63.80;100888.72;680898;29;1262;-61
2021/08/03 01:06:02;;;;;;;2.38;2.10;;;;;;;15.13;64.07;100894.38;677977;29;61657;-61
2021/08/03 01:06:28;;;;;;;2.63;2.03;;;;;;;15.12;63.80;100892.72;676800;29;84204;-61
2021/08/03 01:07:01;;;;;;;3.63;2.20;;;;;;;15.13;63.80;100888.94;678291;28;129099;-62
2021/08/03 01:07:34;;;;;;;2.70;2.10;;;;;;;15.14;63.87;100892.53;676037;29;120864;-63
2021/08/03 01:08:02;;;;;;;2.33;2.13;;;;;;;15.13;63.84;100888.94;674768;29;137752;-63
2021/08/03 01:08:37;;;;;;;2.22;1.90;;;;;;;15.14;63.54;100890.63;678531;28;126409;-61
2021/08/03 01:09:08;;;;;;;1.90;1.80;;;;;;;15.14;63.79;100890.63;680947;28;62282;-63
2021/08/03 01:09:37;;;;;;;2.10;1.90;;;;;;;15.14;63.58;100887.91;680540;28;159554;-62
2021/08/03 01:10:10;;;;;;;2.15;1.95;;;;;;;15.13;63.49;100891.66;684150;28;60645;-62
2021/08/03 01:10:37;;;;;;;2.17;2.00;;;;;;;15.11;63.86;100892.94;678910;28;137361;-61
2021/08/03 01:11:06;;;;;;;3.10;2.03;;;;;;;15.09;63.67;100893.13;678420;28;129981;-61
2021/08/03 01:11:38;;;;;;;2.25;1.95;;;;;;;15.08;63.67;100890.63;682980;28;61574;-63
2021/08/03 01:12:07;;;;;;;2.65;1.95;;;;;;;15.07;63.84;100897.94;684276;28;60268;-62
2021/08/03 01:12:40;;;;;;;2.65;1.98;;;;;;;15.07;63.88;100889.75;681534;28;136064;-63
2021/08/03 01:13:07;;;;;;;2.70;2.03;;;;;;;15.07;63.62;100897.94;680071;28;129327;-61
2021/08/03 01:13:35;;;;;;;2.42;1.90;;;;;;;15.08;63.70;100891.44;678599;28;139316;-60
2021/08/03 01:14:03;;;;;;;2.35;1.88;;;;;;;15.07;63.78;100884.31;683843;28;61486;-60
2021/08/03 01:14:32;;;;;;;2.75;1.90;;;;;;;15.10;63.67;100885.81;681901;28;60648;-62
2021/08/03 01:15:01;;;;;;;2.35;1.80;;;;;;;15.11;63.62;100887.50;683179;28;61663;-63
2021/08/03 01:15:29;;;;;;;2.05;1.90;;;;;;;15.12;63.60;100881.00;683958;28;83794;-62
2021/08/03 01:15:55;;;;;;;2.10;2.00;;;;;;;15.12;63.63;100883.72;682774;28;58972;-63
2021/08/03 01:16:25;;;;;;;2.95;1.90;;;;;;;15.12;63.34;100881.84;681636;28;118397;-61
2021/08/03 01:16:50;;;;;;;2.17;1.90;;;;;;;15.12;63.29;100881.84;680063;28;138566;-61
2021/08/03 01:17:19;;;;;;;2.08;1.88;;;;;;;15.14;63.24;100881.66;677296;28;121185;-62
2021/08/03 01:17:46;;;;;;;2.50;1.85;;;;;;;15.13;63.59;100888.94;677959;28;133409;-60
2021/08/03 01:18:13;;;;;;;2.10;2.00;;;;;;;15.13;63.70;100879.97;680036;28;115976;-63
2021/08/03 01:18:42;;;;;;;2.10;2.00;;;;;;;15.14;63.62;100881.66;684251;28;60408;-61
2021/08/03 01:19:16;;;;;;;2.58;1.90;;;;;;;15.16;63.58;100884.13;688208;28;38111;-62
2021/08/03 01:19:46;;;;;;;1.90;1.80;;;;;;;15.16;63.37;100885.00;683755;28;160121;-60
2021/08/03 01:20:11;;;;;;;2.47;2.10;;;;;;;15.16;63.28;100882.28;685183;28;138980;-60
2021/08/03 01:20:38;;;;;;;2.13;1.87;;;;;;;15.17;63.13;100885.81;688115;28;60595;-64
2021/08/03 01:21:11;;;;;;;2.25;2.05;;;;;;;15.16;63.11;100879.56;682203;28;138248;-61
2021/08/03 01:21:46;;;;;;;2.42;2.00;;;;;;;15.17;63.38;100883.09;677893;28;162223;-61
2021/08/03 01:22:20;;;;;;;2.60;1.80;;;;;;;15.14;63.45;100878.94;677495;29;124765;-62
2021/08/03 01:23:18;;;;;;;2.10;1.95;;;;;;;15.13;63.51;100888.94;675741;29;157476;-63
2021/08/03 01:24:00;;;;;;;2.10;1.95;;;;;;;15.15;63.39;100888.75;682312;28;115070;-63
2021/08/03 01:24:39;;;;;;;3.00;2.00;;;;;;;15.16;63.44;100890.44;680644;28;135904;-60
2021/08/03 01:25:15;;;;;;;3.70;2.10;;;;;;;15.14;63.41;100889.81;682381;28;135313;-60
2021/08/03 01:25:45;;;;;;;2.47;2.00;;;;;;;15.14;63.65;100892.53;682965;28;137779;-61
2021/08/03 01:26:23;;;;;;;1.90;1.80;;;;;;;15.13;63.37;100901.72;682830;28;138686;-61
2021/08/03 01:26:56;;;;;;;1.98;1.85;;;;;;;15.11;63.46;100895.66;682207;28;138424;-60
2021/08/03 01:27:28;;;;;;;2.20;2.00;;;;;;;15.08;63.53;100894.16;680537;28;138498;-62
2021/08/03 01:28:09;;;;;;;2.35;2.10;;;;;;;15.08;63.42;100896.88;677906;28;135723;-63
2021/08/03 01:28:32;;;;;;;2.00;1.90;;;;;;;15.08;63.75;100901.50;681797;28;138365;-60
2021/08/03 01:28:56;;;;;;;2.13;2.03;;;;;;;15.07;63.62;100897.09;683477;28;69537;-62
2021/08/03 01:29:18;;;;;;;2.20;2.08;;;;;;;15.05;63.47;100902.75;683929;28;62166;-63
2021/08/03 01:29:42;;;;;;;2.78;1.98;;;;;;;15.04;63.72;100903.78;684023;28;68182;-63
2021/08/03 01:30:06;;;;;;;2.65;2.00;;;;;;;15.03;63.59;100902.13;685445;28;70274;-63
2021/08/03 01:30:27;;;;;;;2.65;2.42;;;;;;;15.03;63.49;100904.81;683718;28;68174;-60
2021/08/03 01:30:52;;;;;;;3.60;2.75;;;;;;;15.04;63.68;100902.94;681262;28;29800;-60
2021/08/03 01:31:18;;;;;;;2.42;2.22;;;;;;;15.01;63.49;100893.28;678195;29;74036;-60
2021/08/03 01:31:42;;;;;;;2.20;2.10;;;;;;;15.00;63.63;100898.94;676276;29;133879;-63
2021/08/03 01:32:07;;;;;;;2.20;1.83;;;;;;;14.97;63.86;100902.91;680497;28;79700;-61
2021/08/03 01:32:31;;;;;;;1.92;1.83;;;;;;;14.94;63.75;100901.44;681021;28;106201;-62
2021/08/03 01:32:55;;;;;;;2.33;1.95;;;;;;;14.92;63.95;100899.94;685162;28;61762;-63
2021/08/03 01:33:22;;;;;;;3.35;2.00;;;;;;;14.90;64.13;100902.03;682422;28;69356;-60
2021/08/03 01:33:46;;;;;;;4.72;2.00;;;;;;;14.88;63.91;100901.41;680355;28;136637;-61
2021/08/03 01:34:10;;;;;;;2.50;1.90;;;;;;;14.86;64.25;100896.16;682207;28;69382;-60
2021/08/03 01:34:33;;;;;;;2.05;1.85;;;;;;;14.84;64.16;100895.50;680800;28;114021;-62
2021/08/03 01:34:58;;;;;;;2.20;2.00;;;;;;;14.84;64.37;100894.69;680420;28;116008;-60
2021/08/03 01:35:22;;;;;;;2.17;1.90;;;;;;;14.84;64.55;100900.94;681269;28;45421;-60
2021/08/03 01:35:46;;;;;;;1.98;1.88;;;;;;;14.83;64.66;100899.28;675407;28;101264;-60
2021/08/03 01:36:08;;;;;;;1.90;1.80;;;;;;;14.83;64.33;100898.44;679240;29;67476;-60
2021/08/03 01:36:31;;;;;;;2.30;2.10;;;;;;;14.85;64.35;100896.38;680123;29;40600;-62
2021/08/03 01:36:55;;;;;;;3.42;1.98;;;;;;;14.85;64.38;100899.91;681145;28;28142;-62
2021/08/03 01:37:18;;;;;;;2.30;2.05;;;;;;;14.87;64.38;100900.53;679803;28;107637;-61
2021/08/03 01:37:40;;;;;;;4.10;1.95;;;;;;;14.87;64.45;100895.09;683196;28;66309;-61
2021/08/03 01:38:05;;;;;;;2.42;1.80;;;;;;;14.91;64.69;100896.41;681077;28;113730;-59
2021/08/03 01:38:29;;;;;;;2.05;1.92;;;;;;;14.93;64.65;100896.19;683733;28;36604;-61
2021/08/03 01:38:52;;;;;;;3.13;2.00;;;;;;;14.92;64.63;100898.09;678862;28;105706;-62
2021/08/03 01:39:15;;;;;;;2.35;2.00;;;;;;;14.95;64.22;100900.41;680700;28;46406;-60
2021/08/03 01:39:39;;;;;;;2.35;1.88;;;;;;;14.97;64.49;100900.19;680637;29;51636;-62
2021/08/03 01:40:04;;;;;;;3.05;2.10;;;;;;;14.99;64.39;100897.28;680436;28;69594;-60
2021/08/03 01:40:29;;;;;;;3.47;2.38;;;;;;;15.00;64.45;100891.63;682544;28;60234;-60
2021/08/03 01:40:52;;;;;;;3.80;2.28;;;;;;;15.03;64.30;100899.38;686038;28;15057;-62
2021/08/03 01:41:16;;;;;;;2.50;2.10;;;;;;;15.05;64.26;100900.00;683614;28;37393;-59
2021/08/03 01:41:37;;;;;;;2.83;2.03;;;;;;;15.07;64.29;100899.81;682276;28;83110;-62
2021/08/03 01:42:01;;;;;;;3.05;2.03;;;;;;;15.07;64.19;100895.19;683105;28;46284;-62
2021/08/03 01:42:25;;;;;;;3.05;1.90;;;;;;;15.08;64.11;100902.34;680835;28;114839;-60
2021/08/03 01:42:49;;;;;;;2.20;2.10;;;;;;;15.09;64.04;100895.84;681683;28;92085;-62
2021/08/03 01:43:12;;;;;;;2.90;2.00;;;;;;;15.11;63.91;100899.22;682127;28;69414;-60
2021/08/03 01:43:35;;;;;;;1.98;1.88;;;;;;;15.10;64.14;100900.25;679565;29;67577;-61
2021/08/03 01:43:59;;;;;;;2.10;1.90;;;;;;;15.12;63.88;100897.31;676299;29;92272;-61
2021/08/03 01:44:21;;;;;;;2.13;1.92;;;;;;;15.10;63.78;100897.53;676831;29;44470;-62
2021/08/03 01:44:47;;;;;;;2.42;1.98;;;;;;;15.12;63.77;100895.47;674937;29;92135;-59
2021/08/03 01:45:14;;;;;;;2.13;1.80;;;;;;;15.12;63.86;100905.47;671233;29;148578;-59
2021/08/03 01:45:37;;;;;;;2.20;2.00;;;;;;;15.11;63.67;100898.38;677016;29;62500;-62
2021/08/03 01:45:59;;;;;;;3.00;2.13;;;;;;;15.11;64.01;100903.81;674320;29;70120;-60
2021/08/03 01:46:22;;;;;;;2.35;2.20;;;;;;;15.10;64.07;100900.25;674877;29;46367;-62
2021/08/03 01:46:45;;;;;;;2.13;1.92;;;;;;;15.08;63.83;100902.34;675569;29;67434;-62
2021/08/03 01:47:08;;;;;;;2.00;1.90;;;;;;;15.06;63.89;100904.44;676608;29;93023;-62
2021/08/03 01:47:34;;;;;;;2.10;2.00;;;;;;;15.05;64.02;100908.19;673839;29;138096;-60
2021/08/03 01:47:56;;;;;;;2.13;1.92;;;;;;;15.05;63.70;100904.63;676201;29;46417;-62
2021/08/03 01:48:24;;;;;;;2.13;2.00;;;;;;;15.01;63.97;100906.88;676881;28;120871;-61
2021/08/03 01:48:46;;;;;;;2.55;2.00;;;;;;;15.02;64.04;100907.75;680273;28;57508;-61
2021/08/03 01:49:08;;;;;;;2.38;2.10;;;;;;;14.99;63.97;100906.25;682444;28;32470;-62
2021/08/03 01:49:32;;;;;;;2.67;2.05;;;;;;;14.98;64.13;100907.28;681324;28;45307;-59
2021/08/03 01:49:56;;;;;;;2.80;1.95;;;;;;;14.95;63.86;100910.41;681155;28;76733;-61
2021/08/03 01:50:18;;;;;;;1.98;1.88;;;;;;;14.92;63.96;100911.69;679762;28;114505;-63
2021/08/03 01:50:49;;;;;;;2.05;1.85;;;;;;;14.89;64.10;100906.66;677178;29;138580;-63
2021/08/03 01:51:10;;;;;;;2.03;1.92;;;;;;;14.87;64.05;100910.59;679143;29;70156;-59
2021/08/03 01:51:33;;;;;;;2.70;2.40;;;;;;;14.87;63.99;100919.59;680601;29;26666;-61
2021/08/03 01:51:56;;;;;;;2.25;2.10;;;;;;;14.84;64.35;100916.44;678883;28;81583;-63
2021/08/03 01:52:18;;;;;;;2.42;2.20;;;;;;;14.83;64.06;100912.03;683300;28;21789;-61
2021/08/03 01:52:44;;;;;;;3.33;1.98;;;;;;;14.83;64.08;100920.19;680746;28;61825;-62
2021/08/03 01:53:12;;;;;;;4.82;2.00;;;;;;;14.82;64.22;100922.06;676403;28;158933;-61
2021/08/03 01:53:34;;;;;;;2.28;2.00;;;;;;;14.79;64.32;100919.75;680555;29;46402;-61
2021/08/03 01:53:58;;;;;;;2.58;2.08;;;;;;;14.77;64.27;100919.94;678826;29;13475;-62
2021/08/03 01:54:20;;;;;;;2.30;2.10;;;;;;;14.76;64.39;100920.16;678865;29;1242;-61
2021/08/03 01:54:44;;;;;;;2.30;2.15;;;;;;;14.75;64.47;100922.03;676351;29;68334;-61
2021/08/03 01:55:08;;;;;;;9.43;6.50;;;;;;;14.74;64.46;100917.63;678364;28;66442;-61